sensor_id;sensor_type;location;lat;lon;timestamp;noise_LAeq;noise_LA_min;noise_LA_max;noise_LA01;noise_LA95
76100;Laerm;64828;49.956;8.636;2023-12-22T00:00:07;40.13;38.05;42.50;;
76100;Laerm;64828;49.956;8.636;2023-12-22T00:00:23;40.19;38.07;42.29;;
76100;Laerm;64828;49.956;8.636;2023-12-22T00:00:38;40.10;38.19;42.37;;
76100;Laerm;64828;49.956;8.636;2023-12-22T00:00:54;40.15;38.04;42.21;;
76100;Laerm;64828;49.956;8.636;2023-12-22T00:01:10;40.00;37.75;42.09;;
76100;Laerm;64828;49.956;8.636;2023-12-22T00:01:27;40.15;38.03;42.54;;
76100;Laerm;64828;49.956;8.636;2023-12-22T00:01:42;40.52;38.44;42.79;;
76100;Laerm;64828;49.956;8.636;2023-12-22T00:01:58;40.70;38.35;42.76;;
76100;Laerm;64828;49.956;8.636;2023-12-22T00:02:13;40.68;37.95;43.12;;
76100;Laerm;64828;49.956;8.636;2023-12-22T00:02:29;40.60;37.41;42.88;;
76100;Laerm;64828;49.956;8.636;2023-12-22T00:02:44;40.20;38.29;42.11;;
76100;Laerm;64828;49.956;8.636;2023-12-22T00:03:00;40.28;38.13;42.53;;
76100;Laerm;64828;49.956;8.636;2023-12-22T00:03:16;40.18;37.84;41.85;;
76100;Laerm;64828;49.956;8.636;2023-12-22T00:03:31;40.16;38.41;42.09;;
76100;Laerm;64828;49.956;8.636;2023-12-22T00:03:47;40.19;38.22;42.75;;
76100;Laerm;64828;49.956;8.636;2023-12-22T00:04:02;40.11;38.13;42.74;;
76100;Laerm;64828;49.956;8.636;2023-12-22T00:04:21;40.04;37.90;42.00;;
76100;Laerm;64828;49.956;8.636;2023-12-22T00:04:36;40.14;38.12;42.06;;
76100;Laerm;64828;49.956;8.636;2023-12-22T00:04:52;40.17;37.74;42.17;;
76100;Laerm;64828;49.956;8.636;2023-12-22T00:05:08;40.34;33.82;42.60;;
76100;Laerm;64828;49.956;8.636;2023-12-22T00:05:23;40.05;37.79;42.29;;
76100;Laerm;64828;49.956;8.636;2023-12-22T00:05:39;40.21;38.12;42.58;;
76100;Laerm;64828;49.956;8.636;2023-12-22T00:05:54;40.21;38.40;43.30;;
76100;Laerm;64828;49.956;8.636;2023-12-22T00:06:10;40.19;38.19;42.31;;
76100;Laerm;64828;49.956;8.636;2023-12-22T00:06:27;40.14;38.18;42.12;;
76100;Laerm;64828;49.956;8.636;2023-12-22T00:06:42;40.09;38.04;42.06;;
76100;Laerm;64828;49.956;8.636;2023-12-22T00:06:58;40.01;37.55;42.00;;
76100;Laerm;64828;49.956;8.636;2023-12-22T00:07:14;40.23;38.25;41.81;;
76100;Laerm;64828;49.956;8.636;2023-12-22T00:07:29;40.27;38.25;41.96;;
76100;Laerm;64828;49.956;8.636;2023-12-22T00:07:45;40.10;38.26;42.10;;
76100;Laerm;64828;49.956;8.636;2023-12-22T00:08:01;40.13;37.96;41.75;;
76100;Laerm;64828;49.956;8.636;2023-12-22T00:08:16;40.28;37.99;42.00;;
76100;Laerm;64828;49.956;8.636;2023-12-22T00:08:32;40.29;38.29;42.17;;
76100;Laerm;64828;49.956;8.636;2023-12-22T00:08:47;40.07;38.35;41.81;;
76100;Laerm;64828;49.956;8.636;2023-12-22T00:09:03;40.20;38.49;42.32;;
76100;Laerm;64828;49.956;8.636;2023-12-22T00:09:19;40.47;38.50;42.63;;
76100;Laerm;64828;49.956;8.636;2023-12-22T00:09:34;40.56;38.19;42.68;;
76100;Laerm;64828;49.956;8.636;2023-12-22T00:09:50;40.47;38.46;42.56;;
76100;Laerm;64828;49.956;8.636;2023-12-22T00:10:06;40.31;38.67;42.27;;
76100;Laerm;64828;49.956;8.636;2023-12-22T00:10:21;40.51;37.56;42.44;;
76100;Laerm;64828;49.956;8.636;2023-12-22T00:10:37;40.45;38.00;42.13;;
76100;Laerm;64828;49.956;8.636;2023-12-22T00:10:52;40.31;38.30;42.03;;
76100;Laerm;64828;49.956;8.636;2023-12-22T00:11:08;40.12;38.40;42.07;;
76100;Laerm;64828;49.956;8.636;2023-12-22T00:11:24;40.05;37.73;42.07;;
76100;Laerm;64828;49.956;8.636;2023-12-22T00:11:39;40.14;38.33;42.15;;
76100;Laerm;64828;49.956;8.636;2023-12-22T00:11:55;40.10;38.01;42.13;;
76100;Laerm;64828;49.956;8.636;2023-12-22T00:12:10;40.08;38.33;42.00;;
76100;Laerm;64828;49.956;8.636;2023-12-22T00:12:26;40.08;37.78;41.99;;
76100;Laerm;64828;49.956;8.636;2023-12-22T00:12:42;40.07;38.36;42.02;;
76100;Laerm;64828;49.956;8.636;2023-12-22T00:12:57;40.14;37.82;42.02;;
76100;Laerm;64828;49.956;8.636;2023-12-22T00:13:13;40.10;38.15;42.26;;
76100;Laerm;64828;49.956;8.636;2023-12-22T00:13:28;40.30;38.31;42.36;;
76100;Laerm;64828;49.956;8.636;2023-12-22T00:13:44;40.11;37.81;42.18;;
76100;Laerm;64828;49.956;8.636;2023-12-22T00:14:00;40.10;38.27;41.64;;
76100;Laerm;64828;49.956;8.636;2023-12-22T00:14:15;40.17;38.20;42.28;;
76100;Laerm;64828;49.956;8.636;2023-12-22T00:14:31;40.36;38.52;42.29;;
76100;Laerm;64828;49.956;8.636;2023-12-22T00:14:46;40.40;38.36;42.20;;
76100;Laerm;64828;49.956;8.636;2023-12-22T00:15:02;40.41;38.09;42.45;;
76100;Laerm;64828;49.956;8.636;2023-12-22T00:15:18;40.44;38.35;42.34;;
76100;Laerm;64828;49.956;8.636;2023-12-22T00:15:33;40.57;38.55;42.70;;
76100;Laerm;64828;49.956;8.636;2023-12-22T00:15:49;40.70;38.25;43.29;;
76100;Laerm;64828;49.956;8.636;2023-12-22T00:16:05;40.32;38.37;42.15;;
76100;Laerm;64828;49.956;8.636;2023-12-22T00:16:20;40.27;38.52;42.20;;
76100;Laerm;64828;49.956;8.636;2023-12-22T00:16:38;40.31;38.15;42.19;;
76100;Laerm;64828;49.956;8.636;2023-12-22T00:16:53;40.19;38.09;41.67;;
76100;Laerm;64828;49.956;8.636;2023-12-22T00:17:09;40.27;38.23;42.33;;
76100;Laerm;64828;49.956;8.636;2023-12-22T00:17:25;40.27;38.49;42.48;;
76100;Laerm;64828;49.956;8.636;2023-12-22T00:17:40;40.18;38.24;42.02;;
76100;Laerm;64828;49.956;8.636;2023-12-22T00:17:56;40.23;38.07;42.26;;
76100;Laerm;64828;49.956;8.636;2023-12-22T00:18:11;40.14;37.96;42.65;;
76100;Laerm;64828;49.956;8.636;2023-12-22T00:18:27;40.15;38.12;41.88;;
76100;Laerm;64828;49.956;8.636;2023-12-22T00:18:43;40.25;38.38;42.34;;
76100;Laerm;64828;49.956;8.636;2023-12-22T00:18:58;40.33;38.47;42.33;;
76100;Laerm;64828;49.956;8.636;2023-12-22T00:19:14;40.28;38.46;42.45;;
76100;Laerm;64828;49.956;8.636;2023-12-22T00:19:29;40.29;38.42;42.88;;
76100;Laerm;64828;49.956;8.636;2023-12-22T00:19:45;40.19;38.36;41.92;;
76100;Laerm;64828;49.956;8.636;2023-12-22T00:20:00;40.26;38.23;41.85;;
76100;Laerm;64828;49.956;8.636;2023-12-22T00:20:18;40.22;38.41;41.98;;
76100;Laerm;64828;49.956;8.636;2023-12-22T00:20:34;40.17;37.70;41.84;;
76100;Laerm;64828;49.956;8.636;2023-12-22T00:20:50;40.08;37.96;42.04;;
76100;Laerm;64828;49.956;8.636;2023-12-22T00:21:10;40.30;38.18;42.64;;
76100;Laerm;64828;49.956;8.636;2023-12-22T00:21:26;40.43;38.17;42.95;;
76100;Laerm;64828;49.956;8.636;2023-12-22T00:21:43;40.28;38.12;42.04;;
76100;Laerm;64828;49.956;8.636;2023-12-22T00:21:58;40.26;37.98;42.50;;
76100;Laerm;64828;49.956;8.636;2023-12-22T00:22:14;40.18;38.27;42.00;;
76100;Laerm;64828;49.956;8.636;2023-12-22T00:22:29;40.41;38.40;42.54;;
76100;Laerm;64828;49.956;8.636;2023-12-22T00:22:45;40.60;38.41;42.26;;
76100;Laerm;64828;49.956;8.636;2023-12-22T00:23:01;40.69;38.41;43.01;;
76100;Laerm;64828;49.956;8.636;2023-12-22T00:23:17;40.98;38.85;43.15;;
76100;Laerm;64828;49.956;8.636;2023-12-22T00:23:33;41.24;39.10;43.76;;
76100;Laerm;64828;49.956;8.636;2023-12-22T00:23:51;40.92;37.48;42.90;;
76100;Laerm;64828;49.956;8.636;2023-12-22T00:24:06;40.50;38.62;42.55;;
76100;Laerm;64828;49.956;8.636;2023-12-22T00:24:22;40.20;38.48;42.22;;
76100;Laerm;64828;49.956;8.636;2023-12-22T00:24:37;40.21;38.41;41.97;;
76100;Laerm;64828;49.956;8.636;2023-12-22T00:24:54;40.18;37.83;42.73;;
76100;Laerm;64828;49.956;8.636;2023-12-22T00:25:10;40.26;38.24;42.37;;
76100;Laerm;64828;49.956;8.636;2023-12-22T00:25:25;40.24;38.10;41.98;;
76100;Laerm;64828;49.956;8.636;2023-12-22T00:25:43;40.21;38.28;42.13;;
76100;Laerm;64828;49.956;8.636;2023-12-22T00:25:59;40.32;38.27;42.47;;
76100;Laerm;64828;49.956;8.636;2023-12-22T00:26:14;40.30;38.44;42.64;;
76100;Laerm;64828;49.956;8.636;2023-12-22T00:26:30;40.28;38.26;42.33;;
76100;Laerm;64828;49.956;8.636;2023-12-22T00:26:46;40.29;38.44;42.17;;
76100;Laerm;64828;49.956;8.636;2023-12-22T00:27:01;40.24;37.96;42.50;;
76100;Laerm;64828;49.956;8.636;2023-12-22T00:27:18;40.30;38.15;42.28;;
76100;Laerm;64828;49.956;8.636;2023-12-22T00:27:34;40.33;38.58;42.12;;
76100;Laerm;64828;49.956;8.636;2023-12-22T00:27:49;40.32;38.72;42.32;;
76100;Laerm;64828;49.956;8.636;2023-12-22T00:28:05;40.22;38.11;42.30;;
76100;Laerm;64828;49.956;8.636;2023-12-22T00:28:20;40.30;38.49;41.89;;
76100;Laerm;64828;49.956;8.636;2023-12-22T00:28:36;40.32;38.04;42.06;;
76100;Laerm;64828;49.956;8.636;2023-12-22T00:28:52;40.26;38.02;42.30;;
76100;Laerm;64828;49.956;8.636;2023-12-22T00:29:07;40.26;38.16;41.97;;
76100;Laerm;64828;49.956;8.636;2023-12-22T00:29:23;40.22;38.18;42.20;;
76100;Laerm;64828;49.956;8.636;2023-12-22T00:29:38;40.35;38.37;42.32;;
76100;Laerm;64828;49.956;8.636;2023-12-22T00:29:54;40.34;38.21;42.10;;
76100;Laerm;64828;49.956;8.636;2023-12-22T00:30:10;40.29;38.44;42.53;;
76100;Laerm;64828;49.956;8.636;2023-12-22T00:30:26;40.28;37.94;42.21;;
76100;Laerm;64828;49.956;8.636;2023-12-22T00:30:42;40.28;38.40;41.85;;
76100;Laerm;64828;49.956;8.636;2023-12-22T00:30:58;40.50;38.71;42.69;;
76100;Laerm;64828;49.956;8.636;2023-12-22T00:31:14;40.48;38.31;42.39;;
76100;Laerm;64828;49.956;8.636;2023-12-22T00:31:29;40.53;38.30;42.47;;
76100;Laerm;64828;49.956;8.636;2023-12-22T00:31:45;40.57;38.55;42.56;;
76100;Laerm;64828;49.956;8.636;2023-12-22T00:32:00;40.41;38.39;42.26;;
76100;Laerm;64828;49.956;8.636;2023-12-22T00:32:16;40.21;38.34;41.72;;
76100;Laerm;64828;49.956;8.636;2023-12-22T00:32:31;40.29;38.43;42.45;;
76100;Laerm;64828;49.956;8.636;2023-12-22T00:32:47;40.26;37.83;42.07;;
76100;Laerm;64828;49.956;8.636;2023-12-22T00:33:03;40.28;37.67;41.95;;
76100;Laerm;64828;49.956;8.636;2023-12-22T00:33:18;40.31;38.21;42.41;;
76100;Laerm;64828;49.956;8.636;2023-12-22T00:33:34;40.27;38.38;42.08;;
76100;Laerm;64828;49.956;8.636;2023-12-22T00:33:50;40.36;38.73;42.33;;
76100;Laerm;64828;49.956;8.636;2023-12-22T00:34:05;40.27;38.44;42.22;;
76100;Laerm;64828;49.956;8.636;2023-12-22T00:34:24;40.23;38.47;42.36;;
76100;Laerm;64828;49.956;8.636;2023-12-22T00:34:39;40.29;38.23;42.09;;
76100;Laerm;64828;49.956;8.636;2023-12-22T00:34:55;40.28;38.50;42.41;;
76100;Laerm;64828;49.956;8.636;2023-12-22T00:35:12;40.37;38.53;42.24;;
76100;Laerm;64828;49.956;8.636;2023-12-22T00:35:27;40.43;38.38;42.58;;
76100;Laerm;64828;49.956;8.636;2023-12-22T00:35:43;40.20;38.54;42.37;;
76100;Laerm;64828;49.956;8.636;2023-12-22T00:35:58;40.46;38.41;42.64;;
76100;Laerm;64828;49.956;8.636;2023-12-22T00:36:14;40.37;38.44;42.44;;
76100;Laerm;64828;49.956;8.636;2023-12-22T00:36:29;40.29;38.59;42.16;;
76100;Laerm;64828;49.956;8.636;2023-12-22T00:36:45;40.30;38.59;42.51;;
76100;Laerm;64828;49.956;8.636;2023-12-22T00:37:01;40.26;38.40;42.04;;
76100;Laerm;64828;49.956;8.636;2023-12-22T00:37:17;40.31;38.46;42.64;;
76100;Laerm;64828;49.956;8.636;2023-12-22T00:37:32;40.42;38.26;42.72;;
76100;Laerm;64828;49.956;8.636;2023-12-22T00:37:48;40.24;38.30;41.97;;
76100;Laerm;64828;49.956;8.636;2023-12-22T00:38:03;40.30;37.87;42.09;;
76100;Laerm;64828;49.956;8.636;2023-12-22T00:38:19;40.24;38.63;41.98;;
76100;Laerm;64828;49.956;8.636;2023-12-22T00:38:34;40.29;38.48;42.63;;
76100;Laerm;64828;49.956;8.636;2023-12-22T00:38:50;40.36;38.38;42.30;;
76100;Laerm;64828;49.956;8.636;2023-12-22T00:39:06;40.37;38.48;42.42;;
76100;Laerm;64828;49.956;8.636;2023-12-22T00:39:23;40.34;38.55;41.93;;
76100;Laerm;64828;49.956;8.636;2023-12-22T00:39:38;40.44;37.44;43.03;;
76100;Laerm;64828;49.956;8.636;2023-12-22T00:39:54;40.50;38.63;43.09;;
76100;Laerm;64828;49.956;8.636;2023-12-22T00:40:10;40.41;38.55;42.45;;
76100;Laerm;64828;49.956;8.636;2023-12-22T00:40:25;40.32;38.13;42.44;;
76100;Laerm;64828;49.956;8.636;2023-12-22T00:40:41;40.30;38.47;42.23;;
76100;Laerm;64828;49.956;8.636;2023-12-22T00:40:57;40.35;38.44;42.97;;
76100;Laerm;64828;49.956;8.636;2023-12-22T00:41:12;40.35;38.40;42.73;;
76100;Laerm;64828;49.956;8.636;2023-12-22T00:41:28;40.45;38.27;42.59;;
76100;Laerm;64828;49.956;8.636;2023-12-22T00:41:44;40.58;38.15;42.58;;
76100;Laerm;64828;49.956;8.636;2023-12-22T00:41:59;40.64;38.66;42.60;;
76100;Laerm;64828;49.956;8.636;2023-12-22T00:42:16;40.48;38.46;42.91;;
76100;Laerm;64828;49.956;8.636;2023-12-22T00:42:32;40.49;38.46;43.53;;
76100;Laerm;64828;49.956;8.636;2023-12-22T00:42:47;40.44;38.47;42.23;;
76100;Laerm;64828;49.956;8.636;2023-12-22T00:43:03;40.34;38.18;42.53;;
76100;Laerm;64828;49.956;8.636;2023-12-22T00:43:18;40.33;37.88;41.98;;
76100;Laerm;64828;49.956;8.636;2023-12-22T00:43:34;40.33;38.72;42.90;;
76100;Laerm;64828;49.956;8.636;2023-12-22T00:43:50;40.39;38.58;42.63;;
76100;Laerm;64828;49.956;8.636;2023-12-22T00:44:05;40.33;37.70;42.03;;
76100;Laerm;64828;49.956;8.636;2023-12-22T00:44:21;40.35;38.31;42.34;;
76100;Laerm;64828;49.956;8.636;2023-12-22T00:44:36;40.41;38.33;42.40;;
76100;Laerm;64828;49.956;8.636;2023-12-22T00:44:52;40.35;38.25;42.62;;
76100;Laerm;64828;49.956;8.636;2023-12-22T00:45:08;40.40;38.37;42.76;;
76100;Laerm;64828;49.956;8.636;2023-12-22T00:45:24;40.40;38.21;42.36;;
76100;Laerm;64828;49.956;8.636;2023-12-22T00:45:40;40.37;38.51;42.14;;
76100;Laerm;64828;49.956;8.636;2023-12-22T00:45:55;40.42;38.41;42.55;;
76100;Laerm;64828;49.956;8.636;2023-12-22T00:46:13;40.33;37.68;42.67;;
76100;Laerm;64828;49.956;8.636;2023-12-22T00:46:29;40.41;38.59;42.23;;
76100;Laerm;64828;49.956;8.636;2023-12-22T00:46:44;40.43;36.76;42.97;;
76100;Laerm;64828;49.956;8.636;2023-12-22T00:47:00;40.43;38.66;42.46;;
76100;Laerm;64828;49.956;8.636;2023-12-22T00:47:15;40.35;38.30;41.96;;
76100;Laerm;64828;49.956;8.636;2023-12-22T00:47:31;40.46;38.22;42.28;;
76100;Laerm;64828;49.956;8.636;2023-12-22T00:47:50;40.41;38.49;42.25;;
76100;Laerm;64828;49.956;8.636;2023-12-22T00:48:05;40.38;38.13;42.20;;
76100;Laerm;64828;49.956;8.636;2023-12-22T00:48:21;40.43;38.18;42.58;;
76100;Laerm;64828;49.956;8.636;2023-12-22T00:48:36;40.29;38.17;43.37;;
76100;Laerm;64828;49.956;8.636;2023-12-22T00:48:52;40.40;38.31;42.01;;
76100;Laerm;64828;49.956;8.636;2023-12-22T00:49:08;40.41;38.70;42.26;;
76100;Laerm;64828;49.956;8.636;2023-12-22T00:49:23;40.44;38.27;42.45;;
76100;Laerm;64828;49.956;8.636;2023-12-22T00:49:39;40.45;38.23;42.16;;
76100;Laerm;64828;49.956;8.636;2023-12-22T00:49:54;40.40;38.41;42.43;;
76100;Laerm;64828;49.956;8.636;2023-12-22T00:50:10;40.39;38.57;42.29;;
76100;Laerm;64828;49.956;8.636;2023-12-22T00:50:25;40.38;38.00;42.46;;
76100;Laerm;64828;49.956;8.636;2023-12-22T00:50:41;40.41;38.55;42.69;;
76100;Laerm;64828;49.956;8.636;2023-12-22T00:50:57;40.51;32.50;42.93;;
76100;Laerm;64828;49.956;8.636;2023-12-22T00:51:12;40.34;38.22;42.36;;
76100;Laerm;64828;49.956;8.636;2023-12-22T00:51:28;40.41;38.76;42.21;;
76100;Laerm;64828;49.956;8.636;2023-12-22T00:51:43;40.34;38.63;42.50;;
76100;Laerm;64828;49.956;8.636;2023-12-22T00:51:59;40.38;38.47;42.19;;
76100;Laerm;64828;49.956;8.636;2023-12-22T00:52:14;40.39;38.21;42.42;;
76100;Laerm;64828;49.956;8.636;2023-12-22T00:52:31;40.44;37.93;42.10;;
76100;Laerm;64828;49.956;8.636;2023-12-22T00:52:47;40.48;38.76;42.30;;
76100;Laerm;64828;49.956;8.636;2023-12-22T00:53:03;40.43;38.20;42.30;;
76100;Laerm;64828;49.956;8.636;2023-12-22T00:53:18;40.40;38.51;42.10;;
76100;Laerm;64828;49.956;8.636;2023-12-22T00:53:34;40.43;37.84;42.81;;
76100;Laerm;64828;49.956;8.636;2023-12-22T00:53:50;40.38;37.91;42.36;;
76100;Laerm;64828;49.956;8.636;2023-12-22T00:54:05;40.40;38.75;42.33;;
76100;Laerm;64828;49.956;8.636;2023-12-22T00:54:21;40.38;38.61;42.63;;
76100;Laerm;64828;49.956;8.636;2023-12-22T00:54:36;40.40;33.80;42.89;;
76100;Laerm;64828;49.956;8.636;2023-12-22T00:54:52;40.45;37.75;42.91;;
76100;Laerm;64828;49.956;8.636;2023-12-22T00:55:08;40.62;32.45;43.13;;
76100;Laerm;64828;49.956;8.636;2023-12-22T00:55:24;40.62;38.42;42.82;;
76100;Laerm;64828;49.956;8.636;2023-12-22T00:55:40;40.44;38.77;42.07;;
76100;Laerm;64828;49.956;8.636;2023-12-22T00:55:55;40.43;38.48;42.23;;
76100;Laerm;64828;49.956;8.636;2023-12-22T00:56:11;40.45;38.42;42.80;;
76100;Laerm;64828;49.956;8.636;2023-12-22T00:56:28;40.39;32.68;42.35;;
76100;Laerm;64828;49.956;8.636;2023-12-22T00:56:44;40.41;32.96;42.41;;
76100;Laerm;64828;49.956;8.636;2023-12-22T00:56:59;39.92;32.98;42.42;;
76100;Laerm;64828;49.956;8.636;2023-12-22T00:57:15;39.84;35.48;41.94;;
76100;Laerm;64828;49.956;8.636;2023-12-22T00:57:31;39.87;35.90;42.04;;
76100;Laerm;64828;49.956;8.636;2023-12-22T00:57:46;40.17;32.96;42.64;;
76100;Laerm;64828;49.956;8.636;2023-12-22T00:58:02;40.12;33.24;42.01;;
76100;Laerm;64828;49.956;8.636;2023-12-22T00:58:18;40.06;32.21;42.85;;
76100;Laerm;64828;49.956;8.636;2023-12-22T00:58:33;40.28;36.36;42.90;;
76100;Laerm;64828;49.956;8.636;2023-12-22T00:58:49;40.57;37.93;42.66;;
76100;Laerm;64828;49.956;8.636;2023-12-22T00:59:04;40.41;37.76;42.91;;
76100;Laerm;64828;49.956;8.636;2023-12-22T00:59:20;40.18;33.00;42.45;;
76100;Laerm;64828;49.956;8.636;2023-12-22T00:59:36;40.21;32.81;42.37;;
76100;Laerm;64828;49.956;8.636;2023-12-22T00:59:51;40.22;38.39;42.22;;
76100;Laerm;64828;49.956;8.636;2023-12-22T01:00:07;40.24;36.23;42.54;;
76100;Laerm;64828;49.956;8.636;2023-12-22T01:00:26;40.36;33.46;42.50;;
76100;Laerm;64828;49.956;8.636;2023-12-22T01:00:41;40.63;38.63;42.41;;
76100;Laerm;64828;49.956;8.636;2023-12-22T01:00:57;40.94;34.49;43.40;;
76100;Laerm;64828;49.956;8.636;2023-12-22T01:01:13;41.02;35.37;43.33;;
76100;Laerm;64828;49.956;8.636;2023-12-22T01:01:28;40.93;38.50;43.63;;
76100;Laerm;64828;49.956;8.636;2023-12-22T01:01:44;40.60;38.59;42.74;;
76100;Laerm;64828;49.956;8.636;2023-12-22T01:01:59;40.80;38.24;43.51;;
76100;Laerm;64828;49.956;8.636;2023-12-22T01:02:16;41.26;34.42;44.14;;
76100;Laerm;64828;49.956;8.636;2023-12-22T01:02:32;41.03;33.81;43.71;;
76100;Laerm;64828;49.956;8.636;2023-12-22T01:02:47;40.71;34.52;42.95;;
76100;Laerm;64828;49.956;8.636;2023-12-22T01:03:03;41.19;34.76;44.02;;
76100;Laerm;64828;49.956;8.636;2023-12-22T01:03:19;40.90;38.68;43.11;;
76100;Laerm;64828;49.956;8.636;2023-12-22T01:03:34;40.84;33.68;42.74;;
76100;Laerm;64828;49.956;8.636;2023-12-22T01:03:50;40.75;35.97;43.12;;
76100;Laerm;64828;49.956;8.636;2023-12-22T01:04:05;40.68;38.88;42.77;;
76100;Laerm;64828;49.956;8.636;2023-12-22T01:04:21;40.67;37.64;42.77;;
76100;Laerm;64828;49.956;8.636;2023-12-22T01:04:37;40.58;37.46;43.16;;
76100;Laerm;64828;49.956;8.636;2023-12-22T01:04:52;40.58;38.13;43.08;;
76100;Laerm;64828;49.956;8.636;2023-12-22T01:05:08;40.82;38.36;43.70;;
76100;Laerm;64828;49.956;8.636;2023-12-22T01:05:24;40.51;33.34;43.04;;
76100;Laerm;64828;49.956;8.636;2023-12-22T01:05:39;40.87;33.84;43.01;;
76100;Laerm;64828;49.956;8.636;2023-12-22T01:05:55;40.80;32.98;42.86;;
76100;Laerm;64828;49.956;8.636;2023-12-22T01:06:11;40.47;33.34;42.68;;
76100;Laerm;64828;49.956;8.636;2023-12-22T01:06:26;40.49;38.53;43.03;;
76100;Laerm;64828;49.956;8.636;2023-12-22T01:06:42;40.98;34.98;43.38;;
76100;Laerm;64828;49.956;8.636;2023-12-22T01:06:57;41.06;38.63;43.38;;
76100;Laerm;64828;49.956;8.636;2023-12-22T01:07:13;41.05;38.05;42.88;;
76100;Laerm;64828;49.956;8.636;2023-12-22T01:07:29;40.69;32.63;43.03;;
76100;Laerm;64828;49.956;8.636;2023-12-22T01:07:45;40.84;38.59;42.72;;
76100;Laerm;64828;49.956;8.636;2023-12-22T01:08:00;40.81;32.53;44.56;;
76100;Laerm;64828;49.956;8.636;2023-12-22T01:08:16;41.09;34.95;44.01;;
76100;Laerm;64828;49.956;8.636;2023-12-22T01:08:31;41.18;34.16;44.10;;
76100;Laerm;64828;49.956;8.636;2023-12-22T01:08:47;41.10;38.08;43.11;;
76100;Laerm;64828;49.956;8.636;2023-12-22T01:09:05;41.09;36.60;43.92;;
76100;Laerm;64828;49.956;8.636;2023-12-22T01:09:20;41.24;34.15;43.79;;
76100;Laerm;64828;49.956;8.636;2023-12-22T01:09:37;41.26;38.90;43.74;;
76100;Laerm;64828;49.956;8.636;2023-12-22T01:09:52;41.11;35.95;43.63;;
76100;Laerm;64828;49.956;8.636;2023-12-22T01:10:09;41.10;35.10;43.95;;
76100;Laerm;64828;49.956;8.636;2023-12-22T01:10:25;41.28;32.76;44.27;;
76100;Laerm;64828;49.956;8.636;2023-12-22T01:10:41;41.17;35.13;44.12;;
76100;Laerm;64828;49.956;8.636;2023-12-22T01:10:56;41.49;37.67;44.32;;
76100;Laerm;64828;49.956;8.636;2023-12-22T01:11:12;41.05;35.61;43.53;;
76100;Laerm;64828;49.956;8.636;2023-12-22T01:11:27;41.46;38.76;44.29;;
76100;Laerm;64828;49.956;8.636;2023-12-22T01:11:43;41.57;35.22;44.00;;
76100;Laerm;64828;49.956;8.636;2023-12-22T01:11:58;41.19;32.69;44.03;;
76100;Laerm;64828;49.956;8.636;2023-12-22T01:12:14;40.73;35.87;43.46;;
76100;Laerm;64828;49.956;8.636;2023-12-22T01:12:31;41.39;32.40;45.62;;
76100;Laerm;64828;49.956;8.636;2023-12-22T01:12:46;41.45;32.53;43.97;;
76100;Laerm;64828;49.956;8.636;2023-12-22T01:13:02;41.08;32.64;44.38;;
76100;Laerm;64828;49.956;8.636;2023-12-22T01:13:18;40.59;32.57;43.64;;
76100;Laerm;64828;49.956;8.636;2023-12-22T01:13:33;40.62;32.37;43.49;;
76100;Laerm;64828;49.956;8.636;2023-12-22T01:13:49;40.40;32.46;43.78;;
76100;Laerm;64828;49.956;8.636;2023-12-22T01:14:05;40.11;32.31;43.65;;
76100;Laerm;64828;49.956;8.636;2023-12-22T01:14:22;40.41;32.38;43.97;;
76100;Laerm;64828;49.956;8.636;2023-12-22T01:14:37;39.88;32.64;43.58;;
76100;Laerm;64828;49.956;8.636;2023-12-22T01:14:54;39.68;32.48;43.35;;
76100;Laerm;64828;49.956;8.636;2023-12-22T01:15:10;39.72;32.20;43.50;;
76100;Laerm;64828;49.956;8.636;2023-12-22T01:15:25;39.57;32.41;43.21;;
76100;Laerm;64828;49.956;8.636;2023-12-22T01:15:41;39.25;32.05;43.36;;
76100;Laerm;64828;49.956;8.636;2023-12-22T01:15:59;39.35;32.49;43.42;;
76100;Laerm;64828;49.956;8.636;2023-12-22T01:16:14;39.86;32.12;43.90;;
76100;Laerm;64828;49.956;8.636;2023-12-22T01:16:30;62.92;31.19;86.97;;
76100;Laerm;64828;49.956;8.636;2023-12-22T01:16:46;36.92;30.46;59.53;;
76100;Laerm;64828;49.956;8.636;2023-12-22T01:17:02;60.18;30.20;86.69;;
76100;Laerm;64828;49.956;8.636;2023-12-22T01:17:17;54.06;32.27;65.34;;
76100;Laerm;64828;49.956;8.636;2023-12-22T01:17:33;73.25;33.78;86.92;;
76100;Laerm;64828;49.956;8.636;2023-12-22T01:17:48;41.15;32.60;43.58;;
76100;Laerm;64828;49.956;8.636;2023-12-22T01:18:04;41.19;37.79;44.08;;
76100;Laerm;64828;49.956;8.636;2023-12-22T01:18:20;41.30;38.83;44.16;;
76100;Laerm;64828;49.956;8.636;2023-12-22T01:18:36;40.94;32.97;43.67;;
76100;Laerm;64828;49.956;8.636;2023-12-22T01:18:51;40.93;38.87;43.19;;
76100;Laerm;64828;49.956;8.636;2023-12-22T01:19:07;41.25;38.93;43.85;;
76100;Laerm;64828;49.956;8.636;2023-12-22T01:19:22;41.11;38.83;44.18;;
76100;Laerm;64828;49.956;8.636;2023-12-22T01:19:38;40.87;36.33;43.24;;
76100;Laerm;64828;49.956;8.636;2023-12-22T01:19:53;41.19;33.18;43.93;;
76100;Laerm;64828;49.956;8.636;2023-12-22T01:20:10;41.11;38.64;43.76;;
76100;Laerm;64828;49.956;8.636;2023-12-22T01:20:26;41.07;39.06;43.93;;
76100;Laerm;64828;49.956;8.636;2023-12-22T01:20:41;40.94;37.57;44.21;;
76100;Laerm;64828;49.956;8.636;2023-12-22T01:20:57;41.09;35.20;43.93;;
76100;Laerm;64828;49.956;8.636;2023-12-22T01:21:12;40.88;38.75;43.77;;
76100;Laerm;64828;49.956;8.636;2023-12-22T01:21:28;40.91;38.76;43.02;;
76100;Laerm;64828;49.956;8.636;2023-12-22T01:21:44;40.79;38.16;42.89;;
76100;Laerm;64828;49.956;8.636;2023-12-22T01:21:59;40.80;36.16;43.19;;
76100;Laerm;64828;49.956;8.636;2023-12-22T01:22:15;40.90;38.95;43.23;;
76100;Laerm;64828;49.956;8.636;2023-12-22T01:22:30;40.83;38.79;43.08;;
76100;Laerm;64828;49.956;8.636;2023-12-22T01:22:47;41.03;37.95;43.46;;
76100;Laerm;64828;49.956;8.636;2023-12-22T01:23:03;41.20;38.65;43.60;;
76100;Laerm;64828;49.956;8.636;2023-12-22T01:23:19;41.24;39.01;44.08;;
76100;Laerm;64828;49.956;8.636;2023-12-22T01:23:34;41.08;38.11;43.57;;
76100;Laerm;64828;49.956;8.636;2023-12-22T01:23:50;41.04;38.86;43.17;;
76100;Laerm;64828;49.956;8.636;2023-12-22T01:24:05;41.08;38.42;44.39;;
76100;Laerm;64828;49.956;8.636;2023-12-22T01:24:21;41.16;33.44;43.60;;
76100;Laerm;64828;49.956;8.636;2023-12-22T01:24:37;40.97;38.74;43.30;;
76100;Laerm;64828;49.956;8.636;2023-12-22T01:24:56;40.81;38.86;43.28;;
76100;Laerm;64828;49.956;8.636;2023-12-22T01:25:11;40.75;38.79;43.94;;
76100;Laerm;64828;49.956;8.636;2023-12-22T01:25:27;40.88;39.03;43.68;;
76100;Laerm;64828;49.956;8.636;2023-12-22T01:25:42;40.86;38.91;43.03;;
76100;Laerm;64828;49.956;8.636;2023-12-22T01:25:58;40.77;35.38;43.30;;
76100;Laerm;64828;49.956;8.636;2023-12-22T01:26:14;41.03;35.92;44.01;;
76100;Laerm;64828;49.956;8.636;2023-12-22T01:26:29;41.02;37.02;43.64;;
76100;Laerm;64828;49.956;8.636;2023-12-22T01:26:45;41.10;37.57;43.27;;
76100;Laerm;64828;49.956;8.636;2023-12-22T01:27:00;41.53;38.55;45.78;;
76100;Laerm;64828;49.956;8.636;2023-12-22T01:27:16;41.36;38.96;43.95;;
76100;Laerm;64828;49.956;8.636;2023-12-22T01:27:32;41.38;39.00;43.87;;
76100;Laerm;64828;49.956;8.636;2023-12-22T01:27:48;41.39;39.08;43.81;;
76100;Laerm;64828;49.956;8.636;2023-12-22T01:28:05;41.06;38.47;43.37;;
76100;Laerm;64828;49.956;8.636;2023-12-22T01:28:20;41.12;38.98;43.66;;